Time,TemperatureF,DewpointF,PressureIn,WindDirection,WindDirectionDegrees,WindSpeedMPH,WindSpeedGustMPH,Humidity,HourlyPrecipIn,Conditions,Clouds,dailyrainin,SoftwareType,DateUTC
2013-05-22 00:03:00,52.0,30.0,-100.00,East,81,2.0,4.0,41,-99.99,,,-99.99,,2013-05-22 04:03:00,
2013-05-22 00:12:00,49.0,31.0,-100.00,North,11,3.0,5.0,50,-99.99,,,-99.99,,2013-05-22 04:12:00,
2013-05-22 00:22:00,49.0,31.0,-100.00,North,11,3.0,5.0,50,-99.99,,,-99.99,,2013-05-22 04:22:00,
2013-05-22 00:33:00,50.0,28.0,-100.00,East,98,5.0,5.0,41,-99.99,,,-99.99,,2013-05-22 04:33:00,
2013-05-22 00:42:00,50.0,28.0,-100.00,ESE,102,5.0,6.0,42,-99.99,,,-99.99,,2013-05-22 04:42:00,
2013-05-22 00:52:00,50.0,28.0,-100.00,ESE,102,5.0,6.0,42,-99.99,,,-99.99,,2013-05-22 04:52:00,
2013-05-22 01:02:00,48.0,29.0,-100.00,ESE,106,8.0,9.0,46,-99.99,,,-99.99,,2013-05-22 05:02:00,
2013-05-22 01:11:00,49.0,29.0,-100.00,SE,127,10.0,10.0,47,-99.99,,,-99.99,,2013-05-22 05:11:00,
2013-05-22 01:21:00,49.0,29.0,-100.00,SE,127,10.0,10.0,47,-99.99,,,-99.99,,2013-05-22 05:21:00,
2013-05-22 01:31:00,49.0,28.0,-100.00,ESE,111,8.0,10.0,43,-99.99,,,-99.99,,2013-05-22 05:31:00,
2013-05-22 01:42:00,50.0,27.0,-100.00,East,100,3.0,8.0,41,-99.99,,,-99.99,,2013-05-22 05:42:00,
2013-05-22 01:51:00,50.0,27.0,-100.00,East,100,3.0,8.0,41,-99.99,,,-99.99,,2013-05-22 05:51:00,
2013-05-22 02:01:00,52.0,25.0,-100.00,ESE,120,6.0,10.0,35,-99.99,,,-99.99,,2013-05-22 06:01:00,
2013-05-22 02:11:00,47.0,29.0,-100.00,NNE,28,4.0,6.0,49,-99.99,,,-99.99,,2013-05-22 06:11:00,
2013-05-22 02:21:00,47.0,29.0,-100.00,NNE,28,4.0,6.0,49,-99.99,,,-99.99,,2013-05-22 06:21:00,
2013-05-22 02:31:00,48.0,30.0,-100.00,ESE,115,2.0,7.0,48,-99.99,,,-99.99,,2013-05-22 06:31:00,
2013-05-22 02:41:00,47.0,29.0,-100.00,ENE,69,1.0,7.0,49,-99.99,,,-99.99,,2013-05-22 06:41:00,
2013-05-22 02:52:00,47.0,29.0,-100.00,ENE,69,1.0,7.0,49,-99.99,,,-99.99,,2013-05-22 06:52:00,
2013-05-22 03:01:00,48.0,28.0,-100.00,NNW,348,4.0,7.0,45,-99.99,,,-99.99,,2013-05-22 07:01:00,
2013-05-22 03:11:00,51.0,25.0,-100.00,ESE,118,4.0,7.0,36,-99.99,,,-99.99,,2013-05-22 07:11:00,
2013-05-22 03:21:00,51.0,25.0,-100.00,ESE,118,4.0,7.0,36,-99.99,,,-99.99,,2013-05-22 07:21:00,
2013-05-22 03:31:00,47.0,28.0,-100.00,NNE,17,5.0,5.0,47,-99.99,,,-99.99,,2013-05-22 07:31:00,
2013-05-22 03:41:00,50.0,26.0,-100.00,SE,145,9.0,12.0,39,-99.99,,,-99.99,,2013-05-22 07:41:00,
2013-05-22 03:52:00,50.0,26.0,-100.00,SE,145,9.0,12.0,39,-99.99,,,-99.99,,2013-05-22 07:52:00,
2013-05-22 04:02:00,53.0,25.0,-100.00,SE,137,11.0,15.0,32,-99.99,,,-99.99,,2013-05-22 08:02:00,
2013-05-22 04:11:00,54.0,25.0,-100.00,SE,144,10.0,15.0,32,-99.99,,,-99.99,,2013-05-22 08:11:00,
2013-05-22 04:21:00,54.0,25.0,-100.00,SE,144,10.0,15.0,32,-99.99,,,-99.99,,2013-05-22 08:21:00,
2013-05-22 04:31:00,53.0,25.0,-100.00,SE,137,15.0,17.0,33,-99.99,,,-99.99,,2013-05-22 08:31:00,
2013-05-22 04:41:00,52.0,25.0,-100.00,SE,135,14.0,18.0,34,-99.99,,,-99.99,,2013-05-22 08:41:00,
2013-05-22 04:51:00,52.0,25.0,-100.00,SE,135,14.0,18.0,34,-99.99,,,-99.99,,2013-05-22 08:51:00,
2013-05-22 05:01:00,52.0,26.0,-100.00,SE,131,13.0,16.0,36,-99.99,,,-99.99,,2013-05-22 09:01:00,
2013-05-22 05:11:00,51.0,26.0,-100.00,SE,132,15.0,16.0,36,-99.99,,,-99.99,,2013-05-22 09:11:00,
2013-05-22 05:21:00,51.0,26.0,-100.00,SE,132,15.0,16.0,36,-99.99,,,-99.99,,2013-05-22 09:21:00,
2013-05-22 05:32:00,52.0,26.0,-100.00,SE,129,14.0,18.0,36,-99.99,,,-99.99,,2013-05-22 09:32:00,
2013-05-22 05:42:00,51.0,26.0,-100.00,SE,132,16.0,16.0,37,-99.99,,,-99.99,,2013-05-22 09:42:00,
2013-05-22 05:53:00,51.0,26.0,-100.00,SE,132,16.0,16.0,37,-99.99,,,-99.99,,2013-05-22 09:53:00,
2013-05-22 06:02:00,50.0,27.0,-100.00,SE,135,11.0,16.0,41,-99.99,,,-99.99,,2013-05-22 10:02:00,
2013-05-22 06:12:00,51.0,27.0,-100.00,SE,145,8.0,12.0,39,-99.99,,,-99.99,,2013-05-22 10:12:00,
2013-05-22 06:22:00,51.0,27.0,-100.00,SE,145,8.0,12.0,39,-99.99,,,-99.99,,2013-05-22 10:22:00,
2013-05-22 06:32:00,52.0,26.0,-100.00,SE,141,6.0,11.0,36,-99.99,,,-99.99,,2013-05-22 10:32:00,
2013-05-22 06:42:00,49.0,27.0,-100.00,SE,127,6.0,7.0,42,-99.99,,,-99.99,,2013-05-22 10:42:00,
2013-05-22 06:52:00,49.0,27.0,-100.00,SE,127,6.0,7.0,42,-99.99,,,-99.99,,2013-05-22 10:52:00,
2013-05-22 07:02:00,53.0,25.0,-100.00,SSE,155,12.0,14.0,33,-99.99,,,-99.99,,2013-05-22 11:02:00,
2013-05-22 07:11:00,55.0,25.0,-100.00,SSE,155,19.0,21.0,30,-99.99,,,-99.99,,2013-05-22 11:11:00,
2013-05-22 07:21:00,55.0,25.0,-100.00,SSE,155,19.0,21.0,30,-99.99,,,-99.99,,2013-05-22 11:21:00,
2013-05-22 07:32:00,55.0,25.0,-100.00,SSE,150,19.0,24.0,30,-99.99,,,-99.99,,2013-05-22 11:32:00,
2013-05-22 07:41:00,54.0,25.0,-100.00,SSE,151,19.0,22.0,31,-99.99,,,-99.99,,2013-05-22 11:41:00,
2013-05-22 08:02:00,54.0,25.0,-100.00,SSE,150,19.0,22.0,32,-99.99,,,-99.99,,2013-05-22 12:02:00,
2013-05-22 08:11:00,53.0,26.0,-100.00,SSE,151,19.0,22.0,33,-99.99,,,-99.99,,2013-05-22 12:11:00,
2013-05-22 08:22:00,53.0,26.0,-100.00,SSE,151,19.0,22.0,33,-99.99,,,-99.99,,2013-05-22 12:22:00,
2013-05-22 08:32:00,52.0,27.0,-100.00,SE,145,14.0,18.0,37,-99.99,,,-99.99,,2013-05-22 12:32:00,
2013-05-22 08:42:00,52.0,26.0,-100.00,SE,144,11.0,16.0,35,-99.99,,,-99.99,,2013-05-22 12:42:00,
2013-05-22 08:52:00,52.0,26.0,-100.00,SE,144,11.0,16.0,35,-99.99,,,-99.99,,2013-05-22 12:52:00,
2013-05-22 09:01:00,52.0,27.0,-100.00,SE,143,10.0,13.0,38,-99.99,,,-99.99,,2013-05-22 13:01:00,
2013-05-22 09:11:00,51.0,27.0,-100.00,SE,140,9.0,13.0,39,-99.99,,,-99.99,,2013-05-22 13:11:00,
2013-05-22 09:21:00,51.0,27.0,-100.00,SE,140,9.0,13.0,39,-99.99,,,-99.99,,2013-05-22 13:21:00,
2013-05-22 09:31:00,51.0,27.0,-100.00,SE,140,9.0,13.0,39,-99.99,,,-99.99,,2013-05-22 13:31:00,
2013-05-22 09:41:00,54.0,27.0,-100.00,SE,137,13.0,14.0,35,-99.99,,,-99.99,,2013-05-22 13:41:00,
2013-05-22 09:52:00,54.0,27.0,-100.00,SE,137,13.0,14.0,35,-99.99,,,-99.99,,2013-05-22 13:52:00,
2013-05-22 10:02:00,55.0,28.0,-100.00,SE,133,12.0,17.0,35,-99.99,,,-99.99,,2013-05-22 14:02:00,
2013-05-22 10:11:00,57.0,28.0,-100.00,SE,138,12.0,15.0,32,-99.99,,,-99.99,,2013-05-22 14:11:00,
2013-05-22 10:21:00,57.0,28.0,-100.00,SE,138,12.0,15.0,32,-99.99,,,-99.99,,2013-05-22 14:21:00,
2013-05-22 10:32:00,58.0,26.0,-100.00,SE,136,15.0,18.0,28,-99.99,,,-99.99,,2013-05-22 14:32:00,
2013-05-22 10:41:00,59.0,27.0,-100.00,SE,125,10.0,16.0,29,-99.99,,,-99.99,,2013-05-22 14:41:00,
2013-05-22 10:52:00,59.0,27.0,-100.00,SE,125,10.0,16.0,29,-99.99,,,-99.99,,2013-05-22 14:52:00,
2013-05-22 11:01:00,60.0,24.0,-100.00,SSE,150,17.0,22.0,25,-99.99,,,-99.99,,2013-05-22 15:01:00,
2013-05-22 11:11:00,60.0,25.0,-100.00,SE,146,17.0,22.0,25,-99.99,,,-99.99,,2013-05-22 15:11:00,
2013-05-22 11:21:00,60.0,25.0,-100.00,SE,146,17.0,22.0,25,-99.99,,,-99.99,,2013-05-22 15:21:00,
2013-05-22 11:32:00,61.0,25.0,-100.00,SSE,150,18.0,24.0,24,-99.99,,,-99.99,,2013-05-22 15:32:00,
2013-05-22 11:42:00,61.0,25.0,-100.00,SSE,150,18.0,24.0,24,-99.99,,,-99.99,,2013-05-22 15:42:00,
2013-05-22 11:53:00,62.0,24.0,-100.00,SE,144,17.0,26.0,23,-99.99,,,-99.99,,2013-05-22 15:53:00,
2013-05-22 12:03:00,63.0,22.0,-100.00,SSE,148,21.0,28.0,21,-99.99,,,-99.99,,2013-05-22 16:03:00,
2013-05-22 12:12:00,63.0,21.0,-100.00,SSE,157,29.0,31.0,19,-99.99,,,-99.99,,2013-05-22 16:12:00,
2013-05-22 12:23:00,63.0,19.0,-100.00,SSE,148,23.0,31.0,17,-99.99,,,-99.99,,2013-05-22 16:23:00,
2013-05-22 12:32:00,64.0,19.0,-100.00,SSE,148,20.0,29.0,17,-99.99,,,-99.99,,2013-05-22 16:32:00,
2013-05-22 12:42:00,64.0,19.0,-100.00,SE,146,20.0,25.0,17,-99.99,,,-99.99,,2013-05-22 16:42:00,
2013-05-22 12:52:00,64.0,19.0,-100.00,SE,146,20.0,25.0,17,-99.99,,,-99.99,,2013-05-22 16:52:00,
2013-05-22 13:02:00,66.0,20.0,-100.00,SE,137,22.0,27.0,17,-99.99,,,-99.99,,2013-05-22 17:02:00,
2013-05-22 13:11:00,66.0,20.0,-100.00,SE,132,23.0,26.0,17,-99.99,,,-99.99,,2013-05-22 17:11:00,
2013-05-22 13:22:00,66.0,20.0,-100.00,SE,132,23.0,26.0,17,-99.99,,,-99.99,,2013-05-22 17:22:00,
2013-05-22 13:32:00,67.0,20.0,-100.00,SSE,164,19.0,22.0,16,-99.99,,,-99.99,,2013-05-22 17:32:00,
2013-05-22 13:42:00,68.0,21.0,-100.00,SE,139,20.0,25.0,16,-99.99,,,-99.99,,2013-05-22 17:42:00,
2013-05-22 13:53:00,68.0,21.0,-100.00,SE,139,20.0,25.0,16,-99.99,,,-99.99,,2013-05-22 17:53:00,
2013-05-22 14:02:00,68.0,20.0,-100.00,South,170,13.0,25.0,16,-99.99,,,-99.99,,2013-05-22 18:02:00,
2013-05-22 14:14:00,68.0,19.0,-100.00,SSE,167,20.0,26.0,15,-99.99,,,-99.99,,2013-05-22 18:14:00,
2013-05-22 14:22:00,68.0,19.0,-100.00,SSE,167,20.0,26.0,15,-99.99,,,-99.99,,2013-05-22 18:22:00,
2013-05-22 14:33:00,68.0,20.0,-100.00,SSE,153,22.0,27.0,16,-99.99,,,-99.99,,2013-05-22 18:33:00,
2013-05-22 14:41:00,69.0,19.0,-100.00,SSE,152,21.0,30.0,14,-99.99,,,-99.99,,2013-05-22 18:41:00,
2013-05-22 14:52:00,69.0,19.0,-100.00,SSE,152,21.0,30.0,14,-99.99,,,-99.99,,2013-05-22 18:52:00,
2013-05-22 15:02:00,69.0,21.0,-100.00,SSW,200,17.0,26.0,15,-99.99,,,-99.99,,2013-05-22 19:02:00,
2013-05-22 15:11:00,71.0,20.0,-100.00,SSW,207,20.0,29.0,14,-99.99,,,-99.99,,2013-05-22 19:11:00,
2013-05-22 15:21:00,71.0,20.0,-100.00,SSW,207,20.0,29.0,14,-99.99,,,-99.99,,2013-05-22 19:21:00,
2013-05-22 15:32:00,70.0,20.0,-100.00,SSE,165,12.0,28.0,15,-99.99,,,-99.99,,2013-05-22 19:32:00,
2013-05-22 15:41:00,71.0,23.0,-100.00,SSW,202,19.0,27.0,16,-99.99,,,-99.99,,2013-05-22 19:41:00,
2013-05-22 15:52:00,71.0,23.0,-100.00,SSW,202,19.0,27.0,16,-99.99,,,-99.99,,2013-05-22 19:52:00,
2013-05-22 16:02:00,72.0,20.0,-100.00,SSW,195,20.0,24.0,14,-99.99,,,-99.99,,2013-05-22 20:02:00,
2013-05-22 16:11:00,71.0,18.0,-100.00,SSE,161,25.0,29.0,13,-99.99,,,-99.99,,2013-05-22 20:11:00,
2013-05-22 16:21:00,71.0,18.0,-100.00,SSE,161,25.0,29.0,13,-99.99,,,-99.99,,2013-05-22 20:21:00,
2013-05-22 16:32:00,73.0,20.0,-100.00,South,191,18.0,25.0,13,-99.99,,,-99.99,,2013-05-22 20:32:00,
2013-05-22 16:41:00,73.0,20.0,-100.00,SSW,208,16.0,28.0,13,-99.99,,,-99.99,,2013-05-22 20:41:00,
2013-05-22 16:51:00,73.0,20.0,-100.00,SSW,208,16.0,28.0,13,-99.99,,,-99.99,,2013-05-22 20:51:00,
2013-05-22 17:01:00,72.0,19.0,-100.00,SSW,205,23.0,29.0,13,-99.99,,,-99.99,,2013-05-22 21:01:00,
2013-05-22 17:11:00,73.0,20.0,-100.00,SSW,194,22.0,26.0,13,-99.99,,,-99.99,,2013-05-22 21:11:00,
2013-05-22 17:21:00,73.0,20.0,-100.00,SSW,194,22.0,26.0,13,-99.99,,,-99.99,,2013-05-22 21:21:00,
2013-05-22 17:32:00,72.0,21.0,-100.00,SSW,199,18.0,27.0,14,-99.99,,,-99.99,,2013-05-22 21:32:00,
2013-05-22 17:42:00,72.0,22.0,-100.00,SSW,213,14.0,28.0,15,-99.99,,,-99.99,,2013-05-22 21:42:00,
2013-05-22 17:52:00,72.0,22.0,-100.00,SSW,213,14.0,28.0,15,-99.99,,,-99.99,,2013-05-22 21:52:00,
2013-05-22 18:03:00,73.0,20.0,-100.00,SSE,163,19.0,27.0,13,-99.99,,,-99.99,,2013-05-22 22:03:00,
2013-05-22 18:12:00,73.0,20.0,-100.00,SSE,163,19.0,27.0,13,-99.99,,,-99.99,,2013-05-22 22:12:00,
2013-05-22 18:22:00,73.0,20.0,-100.00,SSE,163,19.0,27.0,13,-99.99,,,-99.99,,2013-05-22 22:22:00,
2013-05-22 18:33:00,73.0,20.0,-100.00,SSE,163,19.0,27.0,13,-99.99,,,-99.99,,2013-05-22 22:33:00,
2013-05-22 18:42:00,73.0,20.0,-100.00,SW,222,23.0,30.0,13,-99.99,,,-99.99,,2013-05-22 22:42:00,
2013-05-22 18:52:00,73.0,20.0,-100.00,SW,222,23.0,30.0,13,-99.99,,,-99.99,,2013-05-22 22:52:00,
2013-05-22 19:02:00,73.0,18.0,-100.00,SW,233,27.0,31.0,12,-99.99,,,-99.99,,2013-05-22 23:02:00,
2013-05-22 19:12:00,73.0,18.0,-100.00,SW,227,21.0,33.0,11,-99.99,,,-99.99,,2013-05-22 23:12:00,
2013-05-22 19:21:00,73.0,18.0,-100.00,SW,227,21.0,33.0,11,-99.99,,,-99.99,,2013-05-22 23:21:00,
2013-05-22 19:32:00,72.0,17.0,-100.00,SW,224,26.0,29.0,12,-99.99,,,-99.99,,2013-05-22 23:32:00,
2013-05-22 19:42:00,73.0,16.0,-100.00,SSW,205,19.0,27.0,11,-99.99,,,-99.99,,2013-05-22 23:42:00,
2013-05-22 19:52:00,73.0,16.0,-100.00,SSW,205,19.0,27.0,11,-99.99,,,-99.99,,2013-05-22 23:52:00,
2013-05-22 20:01:00,72.0,17.0,-100.00,SW,229,23.0,27.0,12,-99.99,,,-99.99,,2013-05-23 00:01:00,
2013-05-22 20:11:00,73.0,16.0,-100.00,SSW,209,19.0,23.0,11,-99.99,,,-99.99,,2013-05-23 00:11:00,
2013-05-22 20:21:00,73.0,16.0,-100.00,SSW,209,19.0,23.0,11,-99.99,,,-99.99,,2013-05-23 00:21:00,
2013-05-22 20:31:00,73.0,16.0,-100.00,SSW,209,19.0,23.0,11,-99.99,,,-99.99,,2013-05-23 00:31:00,
2013-05-22 20:41:00,73.0,19.0,-100.00,SSW,211,11.0,22.0,12,-99.99,,,-99.99,,2013-05-23 00:41:00,
2013-05-22 20:51:00,73.0,19.0,-100.00,SSW,211,11.0,22.0,12,-99.99,,,-99.99,,2013-05-23 00:51:00,
2013-05-22 21:01:00,65.0,33.0,-100.00,WNW,283,12.0,24.0,30,-99.99,,,-99.99,,2013-05-23 01:01:00,
2013-05-22 21:11:00,63.0,35.0,-100.00,NW,319,26.0,31.0,35,-99.99,,,-99.99,,2013-05-23 01:11:00,
2013-05-22 21:32:00,62.0,37.0,-100.00,WNW,299,19.0,26.0,40,-99.99,,,-99.99,,2013-05-23 01:32:00,
2013-05-22 21:42:00,60.0,37.0,-100.00,WNW,303,26.0,29.0,41,-99.99,,,-99.99,,2013-05-23 01:42:00,
2013-05-22 22:01:00,57.0,36.0,-100.00,WNW,303,27.0,35.0,43,-99.99,,,-99.99,,2013-05-23 02:01:00,
2013-05-22 22:11:00,56.0,36.0,-100.00,NW,309,28.0,33.0,46,-99.99,,,-99.99,,2013-05-23 02:11:00,
2013-05-22 22:21:00,56.0,36.0,-100.00,NW,309,28.0,33.0,46,-99.99,,,-99.99,,2013-05-23 02:21:00,
2013-05-22 22:31:00,54.0,35.0,-100.00,NW,314,28.0,35.0,46,-99.99,,,-99.99,,2013-05-23 02:31:00,
2013-05-22 22:42:00,54.0,35.0,-100.00,NW,314,28.0,35.0,46,-99.99,,,-99.99,,2013-05-23 02:42:00,
2013-05-22 22:51:00,54.0,35.0,-100.00,NW,314,28.0,35.0,46,-99.99,,,-99.99,,2013-05-23 02:51:00,
2013-05-22 23:01:00,53.0,33.0,-100.00,WNW,302,27.0,31.0,46,-99.99,,,-99.99,,2013-05-23 03:01:00,
2013-05-22 23:11:00,52.0,32.0,-100.00,WNW,292,31.0,35.0,45,-99.99,,,-99.99,,2013-05-23 03:11:00,
2013-05-22 23:21:00,52.0,31.0,-100.00,WNW,282,32.0,36.0,44,-99.99,,,-99.99,,2013-05-23 03:21:00,
2013-05-22 23:33:00,52.0,33.0,-100.00,WNW,287,28.0,32.0,48,-99.99,,,-99.99,,2013-05-23 03:33:00,
2013-05-22 23:43:00,51.0,33.0,-100.00,WNW,289,24.0,31.0,48,-99.99,,,-99.99,,2013-05-23 03:43:00,
2013-05-22 23:53:00,51.0,33.0,-100.00,West,279,26.0,31.0,50,-99.99,,,-99.99,,2013-05-23 03:53:00,